sensor_id;sensor_type;location;lat;lon;timestamp;P1;P4;P2;P0;N10;N4;N25;N1;N05;TS
66101;SPS30;52883;51.094;5.880;2023-01-10T00:01:25;1.22;1.22;1.22;1.15;9.19;9.19;9.18;9.16;8.04;0.53
66101;SPS30;52883;51.094;5.880;2023-01-10T00:03:51;1.33;1.33;1.32;1.25;9.97;9.97;9.96;9.93;8.72;0.53
66101;SPS30;52883;51.094;5.880;2023-01-10T00:06:17;1.48;1.48;1.46;1.35;10.81;10.80;10.79;10.74;9.40;0.54
66101;SPS30;52883;51.094;5.880;2023-01-10T00:08:42;1.14;1.14;1.12;1.03;8.26;8.26;8.25;8.21;7.18;0.54
66101;SPS30;52883;51.094;5.880;2023-01-10T00:11:08;1.32;1.32;1.30;1.20;9.57;9.56;9.55;9.50;8.31;0.55
66101;SPS30;52883;51.094;5.880;2023-01-10T00:13:53;1.47;1.46;1.42;1.30;10.36;10.35;10.34;10.26;8.95;0.56
66101;SPS30;52883;51.094;5.880;2023-01-10T00:16:19;1.90;1.89;1.84;1.67;13.38;13.37;13.35;13.25;11.56;0.58
66101;SPS30;52883;51.094;5.880;2023-01-10T00:18:45;1.46;1.45;1.41;1.28;10.23;10.23;10.21;10.13;8.83;0.60
66101;SPS30;52883;51.094;5.880;2023-01-10T00:21:11;1.80;1.79;1.72;1.54;12.33;12.33;12.30;12.18;10.59;0.62
66101;SPS30;52883;51.094;5.880;2023-01-10T00:23:38;1.46;1.45;1.39;1.25;9.96;9.95;9.93;9.84;8.55;0.62
66101;SPS30;52883;51.094;5.880;2023-01-10T00:26:05;1.46;1.44;1.38;1.22;9.79;9.78;9.76;9.65;8.37;0.63
66101;SPS30;52883;51.094;5.880;2023-01-10T00:28:31;1.48;1.47;1.41;1.27;10.14;10.13;10.12;10.02;8.71;0.61
66101;SPS30;52883;51.094;5.880;2023-01-10T00:30:59;1.38;1.37;1.32;1.18;9.47;9.47;9.45;9.36;8.14;0.61
66101;SPS30;52883;51.094;5.880;2023-01-10T00:33:28;1.46;1.44;1.38;1.24;9.90;9.90;9.88;9.78;8.49;0.62
66101;SPS30;52883;51.094;5.880;2023-01-10T00:35:56;1.58;1.56;1.49;1.33;10.63;10.62;10.60;10.48;9.10;0.63
66101;SPS30;52883;51.094;5.880;2023-01-10T00:38:22;1.46;1.45;1.38;1.24;9.89;9.89;9.87;9.76;8.48;0.63
66101;SPS30;52883;51.094;5.880;2023-01-10T00:40:48;1.49;1.48;1.42;1.28;10.20;10.20;10.18;10.08;8.76;0.62
66101;SPS30;52883;51.094;5.880;2023-01-10T00:43:15;1.91;1.89;1.83;1.66;13.26;13.25;13.23;13.12;11.42;0.61
66101;SPS30;52883;51.094;5.880;2023-01-10T00:45:59;1.43;1.42;1.38;1.25;10.02;10.01;10.00;9.92;8.65;0.60
66101;SPS30;52883;51.094;5.880;2023-01-10T00:48:26;1.77;1.76;1.70;1.53;12.26;12.25;12.23;12.12;10.56;0.62
66101;SPS30;52883;51.094;5.880;2023-01-10T00:50:52;2.20;2.19;2.11;1.90;15.19;15.18;15.16;15.02;13.07;0.63
66101;SPS30;52883;51.094;5.880;2023-01-10T00:53:18;2.28;2.27;2.21;2.02;16.14;16.14;16.11;16.00;13.96;0.60
66101;SPS30;52883;51.094;5.880;2023-01-10T00:55:44;1.70;1.70;1.68;1.56;12.44;12.43;12.42;12.36;10.82;0.57
66101;SPS30;52883;51.094;5.880;2023-01-10T00:58:10;1.62;1.61;1.59;1.49;11.88;11.87;11.86;11.81;10.35;0.56
66101;SPS30;52883;51.094;5.880;2023-01-10T01:00:38;1.64;1.64;1.63;1.53;12.22;12.21;12.21;12.16;10.66;0.55
66101;SPS30;52883;51.094;5.880;2023-01-10T01:03:04;1.76;1.76;1.74;1.63;13.02;13.02;13.01;12.95;11.35;0.56
66101;SPS30;52883;51.094;5.880;2023-01-10T01:05:31;1.63;1.62;1.60;1.49;11.87;11.87;11.86;11.80;10.33;0.58
66101;SPS30;52883;51.094;5.880;2023-01-10T01:07:56;1.84;1.83;1.80;1.67;13.34;13.33;13.32;13.25;11.59;0.57
66101;SPS30;52883;51.094;5.880;2023-01-10T01:10:22;1.94;1.93;1.89;1.75;13.97;13.97;13.95;13.87;12.13;0.57
66101;SPS30;52883;51.094;5.880;2023-01-10T01:12:50;1.53;1.52;1.49;1.37;10.92;10.92;10.90;10.83;9.46;0.57
66101;SPS30;52883;51.094;5.880;2023-01-10T01:15:16;1.80;1.79;1.73;1.58;12.62;12.62;12.60;12.50;10.90;0.58
66101;SPS30;52883;51.094;5.880;2023-01-10T01:17:42;1.70;1.68;1.63;1.47;11.76;11.76;11.74;11.64;10.13;0.57
66101;SPS30;52883;51.094;5.880;2023-01-10T01:20:08;1.76;1.75;1.69;1.53;12.20;12.20;12.18;12.07;10.51;0.57
66101;SPS30;52883;51.094;5.880;2023-01-10T01:22:34;1.78;1.77;1.71;1.54;12.29;12.28;12.26;12.15;10.57;0.57
66101;SPS30;52883;51.094;5.880;2023-01-10T01:25:00;1.82;1.81;1.76;1.60;12.79;12.78;12.76;12.66;11.03;0.57
66101;SPS30;52883;51.094;5.880;2023-01-10T01:27:26;1.52;1.51;1.47;1.35;10.75;10.75;10.73;10.66;9.30;0.58
66101;SPS30;52883;51.094;5.880;2023-01-10T01:29:51;1.58;1.57;1.53;1.41;11.25;11.24;11.23;11.15;9.74;0.57
66101;SPS30;52883;51.094;5.880;2023-01-10T01:32:17;1.66;1.66;1.62;1.49;11.92;11.92;11.90;11.83;10.33;0.57
66101;SPS30;52883;51.094;5.880;2023-01-10T01:34:43;1.59;1.58;1.54;1.41;11.25;11.24;11.23;11.14;9.72;0.58
66101;SPS30;52883;51.094;5.880;2023-01-10T01:37:08;1.98;1.97;1.92;1.75;14.00;14.00;13.98;13.88;12.11;0.57
66101;SPS30;52883;51.094;5.880;2023-01-10T01:39:34;1.71;1.70;1.65;1.50;12.02;12.01;11.99;11.90;10.38;0.57
66101;SPS30;52883;51.094;5.880;2023-01-10T01:41:59;1.50;1.49;1.45;1.31;10.49;10.48;10.47;10.38;9.04;0.58
66101;SPS30;52883;51.094;5.880;2023-01-10T01:44:34;1.53;1.52;1.46;1.32;10.56;10.56;10.54;10.44;9.09;0.59
66101;SPS30;52883;51.094;5.880;2023-01-10T01:47:07;1.56;1.55;1.50;1.37;10.93;10.92;10.91;10.82;9.43;0.60
66101;SPS30;52883;51.094;5.880;2023-01-10T01:49:47;1.54;1.53;1.48;1.33;10.67;10.66;10.64;10.55;9.18;0.61
66101;SPS30;52883;51.094;5.880;2023-01-10T01:52:16;1.74;1.72;1.65;1.47;11.73;11.72;11.70;11.57;10.04;0.63
66101;SPS30;52883;51.094;5.880;2023-01-10T01:54:49;1.68;1.66;1.58;1.40;11.19;11.19;11.16;11.03;9.56;0.63
66101;SPS30;52883;51.094;5.880;2023-01-10T01:57:19;1.57;1.55;1.47;1.29;10.32;10.31;10.29;10.16;8.79;0.65
66101;SPS30;52883;51.094;5.880;2023-01-10T01:59:51;1.36;1.34;1.24;1.07;8.54;8.53;8.51;8.37;7.20;0.66
66101;SPS30;52883;51.094;5.880;2023-01-10T02:02:21;1.61;1.59;1.48;1.27;10.14;10.13;10.10;9.94;8.55;0.65
66101;SPS30;52883;51.094;5.880;2023-01-10T02:04:56;1.78;1.75;1.63;1.40;11.19;11.18;11.14;10.96;9.43;0.64
66101;SPS30;52883;51.094;5.880;2023-01-10T02:07:28;1.75;1.73;1.62;1.41;11.26;11.25;11.22;11.06;9.54;0.63
66101;SPS30;52883;51.094;5.880;2023-01-10T02:12:33;1.79;1.76;1.64;1.40;11.19;11.18;11.15;10.96;9.42;0.64
66101;SPS30;52883;51.094;5.880;2023-01-10T02:15:00;1.56;1.54;1.43;1.24;9.90;9.90;9.87;9.72;8.37;0.64
66101;SPS30;52883;51.094;5.880;2023-01-10T02:17:28;1.53;1.51;1.42;1.23;9.88;9.87;9.85;9.71;8.38;0.63
66101;SPS30;52883;51.094;5.880;2023-01-10T02:19:57;1.49;1.47;1.37;1.19;9.49;9.48;9.45;9.31;8.03;0.63
66101;SPS30;52883;51.094;5.880;2023-01-10T02:36:39;1.41;1.39;1.27;1.07;8.55;8.54;8.51;8.34;7.14;0.67
66101;SPS30;52883;51.094;5.880;2023-01-10T02:42:06;1.63;1.60;1.45;1.19;9.52;9.52;9.47;9.26;7.89;0.69
66101;SPS30;52883;51.094;5.880;2023-01-10T02:44:42;1.59;1.56;1.43;1.19;9.53;9.52;9.48;9.29;7.94;0.68
66101;SPS30;52883;51.094;5.880;2023-01-10T02:47:24;1.89;1.85;1.69;1.40;11.25;11.24;11.20;10.96;9.37;0.68
66101;SPS30;52883;51.094;5.880;2023-01-10T02:49:50;1.49;1.46;1.34;1.12;8.94;8.94;8.90;8.72;7.46;0.67
66101;SPS30;52883;51.094;5.880;2023-01-10T02:52:17;1.60;1.58;1.46;1.23;9.88;9.88;9.84;9.66;8.30;0.65
66101;SPS30;52883;51.094;5.880;2023-01-10T02:54:56;1.38;1.36;1.24;1.04;8.30;8.29;8.26;8.09;6.92;0.67
66101;SPS30;52883;51.094;5.880;2023-01-10T02:58:09;1.42;1.40;1.27;1.06;8.49;8.48;8.45;8.27;7.07;0.67
66101;SPS30;52883;51.094;5.880;2023-01-10T03:05:43;1.55;1.52;1.39;1.17;9.39;9.38;9.35;9.17;7.86;0.67
66101;SPS30;52883;51.094;5.880;2023-01-10T03:11:26;1.37;1.35;1.24;1.04;8.33;8.33;8.30;8.14;6.97;0.65
66101;SPS30;52883;51.094;5.880;2023-01-10T03:16:44;1.67;1.64;1.49;1.23;9.87;9.86;9.82;9.60;8.19;0.66
66101;SPS30;52883;51.094;5.880;2023-01-10T03:19:28;1.50;1.47;1.34;1.12;8.93;8.92;8.89;8.70;7.44;0.67
66101;SPS30;52883;51.094;5.880;2023-01-10T03:21:59;1.48;1.46;1.34;1.12;9.01;9.00;8.97;8.79;7.54;0.66
66101;SPS30;52883;51.094;5.880;2023-01-10T03:24:30;1.65;1.62;1.48;1.23;9.88;9.87;9.84;9.63;8.23;0.66
66101;SPS30;52883;51.094;5.880;2023-01-10T03:27:03;1.43;1.40;1.27;1.05;8.45;8.44;8.40;8.22;7.02;0.66
66101;SPS30;52883;51.094;5.880;2023-01-10T03:29:44;1.77;1.74;1.56;1.27;10.18;10.17;10.12;9.88;8.40;0.67
66101;SPS30;52883;51.094;5.880;2023-01-10T03:32:29;1.89;1.86;1.70;1.41;11.33;11.32;11.28;11.05;9.45;0.65
66101;SPS30;52883;51.094;5.880;2023-01-10T03:34:57;1.97;1.94;1.79;1.51;12.12;12.11;12.06;11.84;10.17;0.64
66101;SPS30;52883;51.094;5.880;2023-01-10T03:40:29;1.66;1.63;1.51;1.29;10.31;10.30;10.27;10.09;8.67;0.65
66101;SPS30;52883;51.094;5.880;2023-01-10T03:43:15;1.97;1.94;1.78;1.50;11.99;11.98;11.93;11.70;10.03;0.66
66101;SPS30;52883;51.094;5.880;2023-01-10T03:46:12;2.89;2.83;2.55;2.08;16.67;16.65;16.57;16.18;13.77;0.69
66101;SPS30;52883;51.094;5.880;2023-01-10T03:49:04;2.13;2.09;1.89;1.55;12.45;12.44;12.38;12.10;10.31;0.66
66101;SPS30;52883;51.094;5.880;2023-01-10T03:51:32;1.93;1.89;1.73;1.44;11.56;11.55;11.50;11.27;9.64;0.66
66101;SPS30;52883;51.094;5.880;2023-01-10T03:54:02;1.92;1.88;1.71;1.42;11.38;11.37;11.33;11.08;9.47;0.65
66101;SPS30;52883;51.094;5.880;2023-01-10T03:56:28;1.87;1.84;1.65;1.34;10.76;10.75;10.70;10.44;8.87;0.66
66101;SPS30;52883;51.094;5.880;2023-01-10T03:58:54;2.50;2.44;2.15;1.70;13.61;13.59;13.51;13.12;11.06;0.68
66101;SPS30;52883;51.094;5.880;2023-01-10T04:01:19;2.31;2.25;1.96;1.52;12.20;12.18;12.11;11.72;9.83;0.70
66101;SPS30;52883;51.094;5.880;2023-01-10T04:03:45;1.66;1.62;1.42;1.11;8.87;8.86;8.81;8.53;7.18;0.70
66101;SPS30;52883;51.094;5.880;2023-01-10T04:06:11;2.23;2.18;1.92;1.51;12.12;12.11;12.04;11.69;9.86;0.70
66101;SPS30;52883;51.094;5.880;2023-01-10T04:08:36;2.17;2.11;1.84;1.42;11.40;11.39;11.32;10.95;9.18;0.71
66101;SPS30;52883;51.094;5.880;2023-01-10T04:11:02;2.10;2.05;1.81;1.42;11.42;11.41;11.35;11.02;9.29;0.69
66101;SPS30;52883;51.094;5.880;2023-01-10T04:13:28;1.90;1.86;1.65;1.33;10.63;10.61;10.56;10.28;8.70;0.69
66101;SPS30;52883;51.094;5.880;2023-01-10T04:15:54;2.30;2.25;1.98;1.56;12.53;12.51;12.44;12.08;10.18;0.70
66101;SPS30;52883;51.094;5.880;2023-01-10T04:18:19;2.90;2.82;2.43;1.84;14.82;14.80;14.69;14.17;11.83;0.72
66101;SPS30;52883;51.094;5.880;2023-01-10T04:20:45;2.51;2.44;2.11;1.61;12.90;12.88;12.79;12.35;10.32;0.72
66101;SPS30;52883;51.094;5.880;2023-01-10T04:23:10;1.95;1.90;1.66;1.29;10.36;10.35;10.28;9.96;8.37;0.69
66101;SPS30;52883;51.094;5.880;2023-01-10T04:25:36;2.19;2.14;1.88;1.46;11.74;11.73;11.66;11.30;9.51;0.70
66101;SPS30;52883;51.094;5.880;2023-01-10T04:28:01;2.05;1.99;1.72;1.32;10.57;10.55;10.48;10.12;8.47;0.72
66101;SPS30;52883;51.094;5.880;2023-01-10T04:30:27;1.79;1.75;1.54;1.20;9.65;9.64;9.58;9.30;7.83;0.70
66101;SPS30;52883;51.094;5.880;2023-01-10T04:32:53;2.27;2.21;1.93;1.50;12.05;12.04;11.96;11.58;9.73;0.71
66101;SPS30;52883;51.094;5.880;2023-01-10T04:35:18;2.64;2.57;2.22;1.69;13.56;13.54;13.45;12.98;10.84;0.72
66101;SPS30;52883;51.094;5.880;2023-01-10T04:37:44;2.34;2.28;1.95;1.45;11.67;11.65;11.57;11.12;9.25;0.73
66101;SPS30;52883;51.094;5.880;2023-01-10T04:40:09;2.21;2.15;1.83;1.35;10.86;10.84;10.76;10.33;8.57;0.75
66101;SPS30;52883;51.094;5.880;2023-01-10T04:42:35;2.68;2.59;2.17;1.55;12.50;12.48;12.37;11.81;9.70;0.76
66101;SPS30;52883;51.094;5.880;2023-01-10T04:45:01;2.14;2.07;1.71;1.20;9.63;9.62;9.52;9.05;7.38;0.77
66101;SPS30;52883;51.094;5.880;2023-01-10T04:47:27;2.37;2.29;1.89;1.33;10.70;10.68;10.58;10.06;8.21;0.76
66101;SPS30;52883;51.094;5.880;2023-01-10T04:49:52;1.74;1.69;1.42;1.03;8.30;8.29;8.22;7.87;6.49;0.73
66101;SPS30;52883;51.094;5.880;2023-01-10T04:52:18;2.13;2.06;1.75;1.28;10.28;10.26;10.18;9.76;8.07;0.73
66101;SPS30;52883;51.094;5.880;2023-01-10T04:54:43;2.58;2.50;2.09;1.50;12.07;12.05;11.94;11.40;9.37;0.74
66101;SPS30;52883;51.094;5.880;2023-01-10T04:57:09;2.00;1.94;1.64;1.20;9.62;9.60;9.53;9.13;7.54;0.73
66101;SPS30;52883;51.094;5.880;2023-01-10T04:59:34;2.19;2.12;1.78;1.29;10.37;10.35;10.26;9.81;8.08;0.73
66101;SPS30;52883;51.094;5.880;2023-01-10T05:02:00;2.33;2.25;1.86;1.30;10.44;10.42;10.32;9.81;7.99;0.75
66101;SPS30;52883;51.094;5.880;2023-01-10T05:04:25;2.16;2.09;1.73;1.21;9.70;9.69;9.59;9.11;7.43;0.75
66101;SPS30;52883;51.094;5.880;2023-01-10T05:06:51;2.32;2.24;1.85;1.30;10.43;10.41;10.31;9.80;7.99;0.76
66101;SPS30;52883;51.094;5.880;2023-01-10T05:09:17;1.90;1.84;1.53;1.08;8.67;8.66;8.58;8.16;6.67;0.75
66101;SPS30;52883;51.094;5.880;2023-01-10T05:11:43;2.14;2.08;1.76;1.29;10.36;10.35;10.26;9.84;8.14;0.72
66101;SPS30;52883;51.094;5.880;2023-01-10T05:14:09;2.16;2.10;1.79;1.33;10.72;10.71;10.63;10.22;8.49;0.71
66101;SPS30;52883;51.094;5.880;2023-01-10T05:16:34;2.37;2.30;1.98;1.48;11.92;11.91;11.82;11.38;9.48;0.71
66101;SPS30;52883;51.094;5.880;2023-01-10T05:19:00;2.58;2.51;2.16;1.63;13.12;13.10;13.01;12.54;10.46;0.70
66101;SPS30;52883;51.094;5.880;2023-01-10T05:21:26;1.91;1.86;1.59;1.20;9.61;9.60;9.53;9.17;7.63;0.71
66101;SPS30;52883;51.094;5.880;2023-01-10T05:23:51;2.21;2.14;1.80;1.31;10.53;10.51;10.42;9.98;8.23;0.74
66101;SPS30;52883;51.094;5.880;2023-01-10T05:26:18;1.98;1.92;1.63;1.20;9.65;9.64;9.56;9.18;7.60;0.73
66101;SPS30;52883;51.094;5.880;2023-01-10T05:28:46;2.05;1.99;1.68;1.22;9.80;9.79;9.71;9.29;7.67;0.74
66101;SPS30;52883;51.094;5.880;2023-01-10T05:31:13;2.40;2.32;1.94;1.38;11.12;11.10;11.00;10.50;8.61;0.75
66101;SPS30;52883;51.094;5.880;2023-01-10T05:33:44;2.11;2.04;1.70;1.22;9.78;9.77;9.68;9.24;7.58;0.75
66101;SPS30;52883;51.094;5.880;2023-01-10T05:36:14;2.79;2.69;2.17;1.46;11.73;11.71;11.58;10.91;8.77;0.78
66101;SPS30;52883;51.094;5.880;2023-01-10T05:38:40;2.07;2.00;1.61;1.06;8.56;8.55;8.44;7.94;6.35;0.79
66101;SPS30;52883;51.094;5.880;2023-01-10T05:41:06;2.24;2.16;1.75;1.19;9.56;9.54;9.44;8.91;7.19;0.78
66101;SPS30;52883;51.094;5.880;2023-01-10T05:43:32;2.52;2.43;1.97;1.33;10.69;10.67;10.55;9.96;8.02;0.79
66101;SPS30;52883;51.094;5.880;2023-01-10T05:45:57;2.67;2.57;2.11;1.45;11.69;11.67;11.55;10.94;8.87;0.76
66101;SPS30;52883;51.094;5.880;2023-01-10T05:48:23;2.54;2.45;2.00;1.37;11.04;11.02;10.90;10.32;8.36;0.76
66101;SPS30;52883;51.094;5.880;2023-01-10T05:50:49;2.57;2.48;2.02;1.38;11.11;11.09;10.97;10.37;8.39;0.77
66101;SPS30;52883;51.094;5.880;2023-01-10T05:53:16;2.47;2.37;1.92;1.28;10.28;10.26;10.14;9.54;7.66;0.80
66101;SPS30;52883;51.094;5.880;2023-01-10T05:55:42;2.72;2.62;2.10;1.38;11.11;11.09;10.96;10.29;8.21;0.80
66101;SPS30;52883;51.094;5.880;2023-01-10T05:58:08;2.75;2.65;2.12;1.39;11.24;11.21;11.08;10.40;8.30;0.79
66101;SPS30;52883;51.094;5.880;2023-01-10T06:00:36;2.48;2.39;1.91;1.25;10.08;10.06;9.94;9.32;7.44;0.79
66101;SPS30;52883;51.094;5.880;2023-01-10T06:03:02;2.95;2.85;2.33;1.59;12.82;12.80;12.66;11.98;9.70;0.76
66101;SPS30;52883;51.094;5.880;2023-01-10T06:05:28;2.58;2.49;2.05;1.41;11.39;11.37;11.25;10.67;8.67;0.76
66101;SPS30;52883;51.094;5.880;2023-01-10T06:07:53;2.71;2.61;2.12;1.43;11.56;11.54;11.41;10.78;8.69;0.78
66101;SPS30;52883;51.094;5.880;2023-01-10T06:10:19;3.05;2.93;2.35;1.55;12.47;12.45;12.30;11.54;9.22;0.81
66101;SPS30;52883;51.094;5.880;2023-01-10T06:12:44;2.54;2.44;1.96;1.28;10.34;10.32;10.19;9.56;7.63;0.80
66101;SPS30;52883;51.094;5.880;2023-01-10T06:15:11;3.03;2.92;2.33;1.53;12.31;12.28;12.13;11.38;9.07;0.80
66101;SPS30;52883;51.094;5.880;2023-01-10T06:17:36;2.61;2.51;2.01;1.32;10.66;10.63;10.50;9.86;7.87;0.79
66101;SPS30;52883;51.094;5.880;2023-01-10T06:20:02;2.62;2.52;2.02;1.33;10.76;10.74;10.61;9.97;7.97;0.79
66101;SPS30;52883;51.094;5.880;2023-01-10T06:22:28;3.32;3.19;2.54;1.65;13.28;13.25;13.09;12.25;9.73;0.81
66101;SPS30;52883;51.094;5.880;2023-01-10T06:24:54;3.83;3.68;2.93;1.88;15.18;15.14;14.95;13.97;11.07;0.82
66101;SPS30;52883;51.094;5.880;2023-01-10T06:27:19;3.67;3.52;2.75;1.70;13.72;13.69;13.49;12.50;9.76;0.85
66101;SPS30;52883;51.094;5.880;2023-01-10T06:29:46;3.69;3.54;2.79;1.77;14.29;14.26;14.07;13.10;10.33;0.85
66101;SPS30;52883;51.094;5.880;2023-01-10T06:32:11;3.34;3.20;2.53;1.60;12.90;12.87;12.70;11.82;9.31;0.85
66101;SPS30;52883;51.094;5.880;2023-01-10T06:34:37;3.85;3.68;2.87;1.76;14.21;14.17;13.96;12.91;10.05;0.86
66101;SPS30;52883;51.094;5.880;2023-01-10T06:37:03;4.71;4.51;3.49;2.11;17.06;17.01;16.75;15.45;11.95;0.85
66101;SPS30;52883;51.094;5.880;2023-01-10T06:39:28;4.01;3.84;3.00;1.85;14.95;14.91;14.69;13.61;10.62;0.83
66101;SPS30;52883;51.094;5.880;2023-01-10T06:41:54;3.15;3.01;2.36;1.47;11.85;11.82;11.65;10.81;8.45;0.83
66101;SPS30;52883;51.094;5.880;2023-01-10T06:44:19;3.01;2.88;2.27;1.42;11.47;11.44;11.28;10.49;8.23;0.82
66101;SPS30;52883;51.094;5.880;2023-01-10T06:46:45;3.05;2.94;2.34;1.52;12.26;12.23;12.08;11.31;8.99;0.81
66101;SPS30;52883;51.094;5.880;2023-01-10T06:49:10;2.78;2.68;2.16;1.43;11.53;11.51;11.37;10.70;8.57;0.81
66101;SPS30;52883;51.094;5.880;2023-01-10T06:51:36;2.56;2.46;1.97;1.29;10.43;10.41;10.28;9.65;7.70;0.80
66101;SPS30;52883;51.094;5.880;2023-01-10T06:54:02;3.35;3.22;2.56;1.65;13.35;13.32;13.15;12.30;9.76;0.81
66101;SPS30;52883;51.094;5.880;2023-01-10T06:56:27;3.03;2.91;2.28;1.42;11.51;11.48;11.32;10.51;8.24;0.83
66101;SPS30;52883;51.094;5.880;2023-01-10T06:58:53;3.25;3.11;2.40;1.45;11.72;11.68;11.50;10.60;8.19;0.85
66101;SPS30;52883;51.094;5.880;2023-01-10T07:01:19;3.36;3.21;2.48;1.48;11.98;11.94;11.76;10.81;8.33;0.86
66101;SPS30;52883;51.094;5.880;2023-01-10T07:03:45;3.03;2.90;2.25;1.36;11.03;11.00;10.84;10.00;7.75;0.85
66101;SPS30;52883;51.094;5.880;2023-01-10T07:06:12;2.82;2.70;2.10;1.28;10.34;10.31;10.16;9.38;7.28;0.84
66101;SPS30;52883;51.094;5.880;2023-01-10T07:08:42;2.93;2.80;2.16;1.30;10.53;10.50;10.34;9.52;7.36;0.85
66101;SPS30;52883;51.094;5.880;2023-01-10T07:11:10;3.54;3.40;2.66;1.66;13.44;13.40;13.22;12.27;9.62;0.83
66101;SPS30;52883;51.094;5.880;2023-01-10T07:13:37;3.46;3.31;2.61;1.65;13.30;13.27;13.09;12.18;9.59;0.82
66101;SPS30;52883;51.094;5.880;2023-01-10T07:16:04;2.95;2.82;2.20;1.36;10.99;10.96;10.80;10.00;7.80;0.83
66101;SPS30;52883;51.094;5.880;2023-01-10T07:18:33;2.74;2.63;2.07;1.30;10.51;10.48;10.34;9.62;7.56;0.83
66101;SPS30;52883;51.094;5.880;2023-01-10T07:21:00;2.97;2.85;2.26;1.45;11.71;11.68;11.53;10.77;8.52;0.84
66101;SPS30;52883;51.094;5.880;2023-01-10T07:23:26;2.80;2.69;2.12;1.34;10.79;10.76;10.61;9.88;7.77;0.84
66101;SPS30;52883;51.094;5.880;2023-01-10T07:25:51;3.49;3.34;2.61;1.62;13.12;13.09;12.90;11.97;9.36;0.85
66101;SPS30;52883;51.094;5.880;2023-01-10T07:28:17;3.53;3.38;2.66;1.67;13.52;13.49;13.30;12.37;9.72;0.85
66101;SPS30;52883;51.094;5.880;2023-01-10T07:30:43;3.11;2.98;2.33;1.45;11.72;11.69;11.52;10.69;8.36;0.85
66101;SPS30;52883;51.094;5.880;2023-01-10T07:33:08;3.22;3.09;2.45;1.56;12.58;12.55;12.38;11.55;9.12;0.82
66101;SPS30;52883;51.094;5.880;2023-01-10T07:35:34;2.35;2.26;1.80;1.17;9.47;9.45;9.33;8.74;6.96;0.80
66101;SPS30;52883;51.094;5.880;2023-01-10T07:38:00;2.76;2.65;2.08;1.31;10.57;10.54;10.40;9.67;7.60;0.82
66101;SPS30;52883;51.094;5.880;2023-01-10T07:40:27;2.94;2.82;2.21;1.38;11.12;11.09;10.94;10.15;7.95;0.82
66101;SPS30;52883;51.094;5.880;2023-01-10T07:42:57;3.29;3.15;2.46;1.51;12.24;12.21;12.03;11.14;8.68;0.83
66101;SPS30;52883;51.094;5.880;2023-01-10T07:45:24;2.90;2.78;2.17;1.35;10.88;10.85;10.69;9.92;7.75;0.83
66101;SPS30;52883;51.094;5.880;2023-01-10T07:47:56;3.26;3.12;2.44;1.51;12.23;12.20;12.02;11.15;8.71;0.84
66101;SPS30;52883;51.094;5.880;2023-01-10T07:50:26;3.09;2.96;2.26;1.33;10.80;10.77;10.59;9.71;7.43;0.87
66101;SPS30;52883;51.094;5.880;2023-01-10T07:52:54;3.40;3.25;2.48;1.45;11.74;11.70;11.51;10.53;8.03;0.87
66101;SPS30;52883;51.094;5.880;2023-01-10T07:55:20;2.93;2.80;2.15;1.27;10.30;10.27;10.10;9.27;7.11;0.86
66101;SPS30;52883;51.094;5.880;2023-01-10T07:57:46;2.86;2.74;2.11;1.26;10.21;10.18;10.02;9.22;7.10;0.86
66101;SPS30;52883;51.094;5.880;2023-01-10T08:00:14;3.10;2.97;2.30;1.40;11.28;11.25;11.08;10.23;7.92;0.86
66101;SPS30;52883;51.094;5.880;2023-01-10T08:02:41;2.76;2.64;2.06;1.27;10.26;10.23;10.08;9.34;7.28;0.84
66101;SPS30;52883;51.094;5.880;2023-01-10T08:05:06;2.74;2.62;2.05;1.27;10.27;10.25;10.10;9.36;7.32;0.84
66101;SPS30;52883;51.094;5.880;2023-01-10T08:07:32;2.46;2.36;1.83;1.12;9.07;9.04;8.91;8.24;6.40;0.85
66101;SPS30;52883;51.094;5.880;2023-01-10T08:09:58;3.31;3.17;2.52;1.61;12.99;12.96;12.79;11.94;9.44;0.83
66101;SPS30;52883;51.094;5.880;2023-01-10T08:12:23;3.21;3.08;2.46;1.59;12.83;12.80;12.64;11.83;9.40;0.82
66101;SPS30;52883;51.094;5.880;2023-01-10T08:14:50;3.09;2.97;2.38;1.56;12.61;12.58;12.43;11.66;9.31;0.80
66101;SPS30;52883;51.094;5.880;2023-01-10T08:17:16;2.68;2.58;2.08;1.39;11.20;11.18;11.05;10.41;8.35;0.79
66101;SPS30;52883;51.094;5.880;2023-01-10T08:19:41;2.12;2.04;1.65;1.11;8.95;8.93;8.83;8.32;6.70;0.80
66101;SPS30;52883;51.094;5.880;2023-01-10T08:22:07;2.56;2.46;1.97;1.29;10.43;10.41;10.28;9.65;7.70;0.82
66101;SPS30;52883;51.094;5.880;2023-01-10T08:24:33;2.37;2.27;1.79;1.14;9.18;9.16;9.03;8.41;6.63;0.84
66101;SPS30;52883;51.094;5.880;2023-01-10T08:26:59;3.02;2.90;2.26;1.40;11.33;11.30;11.14;10.33;8.07;0.85
66101;SPS30;52883;51.094;5.880;2023-01-10T08:29:26;2.94;2.81;2.19;1.35;10.89;10.86;10.70;9.91;7.72;0.85
66101;SPS30;52883;51.094;5.880;2023-01-10T08:31:52;3.26;3.13;2.45;1.52;12.30;12.26;12.09;11.22;8.78;0.85
66101;SPS30;52883;51.094;5.880;2023-01-10T08:34:18;3.39;3.25;2.52;1.54;12.41;12.38;12.19;11.26;8.74;0.86
66101;SPS30;52883;51.094;5.880;2023-01-10T08:36:43;3.46;3.31;2.56;1.55;12.54;12.51;12.32;11.36;8.79;0.87
66101;SPS30;52883;51.094;5.880;2023-01-10T08:39:09;3.82;3.65;2.84;1.73;13.97;13.93;13.73;12.68;9.84;0.85
66101;SPS30;52883;51.094;5.880;2023-01-10T08:41:34;3.82;3.66;2.88;1.80;14.54;14.51;14.30;13.29;10.43;0.83
66101;SPS30;52883;51.094;5.880;2023-01-10T08:44:00;3.60;3.46;2.76;1.80;14.52;14.49;14.31;13.41;10.68;0.80
66101;SPS30;52883;51.094;5.880;2023-01-10T08:46:26;3.00;2.90;2.37;1.63;13.10;13.07;12.93;12.25;9.92;0.77
66101;SPS30;52883;51.094;5.880;2023-01-10T08:48:51;3.03;2.92;2.39;1.64;13.24;13.22;13.08;12.39;10.04;0.78
66101;SPS30;52883;51.094;5.880;2023-01-10T08:51:17;2.29;2.21;1.83;1.28;10.34;10.32;10.22;9.72;7.93;0.76
66101;SPS30;52883;51.094;5.880;2023-01-10T08:53:43;2.74;2.64;2.16;1.49;11.98;11.96;11.83;11.21;9.09;0.76
66101;SPS30;52883;51.094;5.880;2023-01-10T08:56:09;2.72;2.61;2.09;1.37;11.04;11.02;10.88;10.21;8.14;0.80
66101;SPS30;52883;51.094;5.880;2023-01-10T08:58:35;3.29;3.16;2.49;1.56;12.63;12.59;12.42;11.55;9.08;0.82
66101;SPS30;52883;51.094;5.880;2023-01-10T09:01:04;3.25;3.12;2.49;1.62;13.06;13.03;12.87;12.06;9.59;0.78
66101;SPS30;52883;51.094;5.880;2023-01-10T09:03:31;2.84;2.74;2.19;1.43;11.56;11.53;11.39;10.69;8.52;0.78
66101;SPS30;52883;51.094;5.880;2023-01-10T09:06:00;3.41;3.27;2.59;1.66;13.37;13.34;13.16;12.29;9.72;0.80
66101;SPS30;52883;51.094;5.880;2023-01-10T09:08:26;3.17;3.04;2.40;1.51;12.19;12.16;11.99;11.16;8.78;0.81
66101;SPS30;52883;51.094;5.880;2023-01-10T09:10:52;2.79;2.68;2.10;1.32;10.67;10.64;10.50;9.76;7.66;0.82
66101;SPS30;52883;51.094;5.880;2023-01-10T09:13:18;3.03;2.91;2.30;1.47;11.89;11.86;11.70;10.93;8.64;0.81
66101;SPS30;52883;51.094;5.880;2023-01-10T09:15:44;3.49;3.35;2.64;1.67;13.49;13.46;13.27;12.36;9.73;0.82
66101;SPS30;52883;51.094;5.880;2023-01-10T09:18:10;3.37;3.23;2.55;1.61;12.98;12.94;12.77;11.88;9.35;0.81
66101;SPS30;52883;51.094;5.880;2023-01-10T09:20:38;2.24;2.15;1.70;1.08;8.75;8.73;8.62;8.03;6.34;0.80
66101;SPS30;52883;51.094;5.880;2023-01-10T09:23:14;3.09;2.96;2.36;1.53;12.33;12.30;12.15;11.37;9.03;0.79
66101;SPS30;52883;51.094;5.880;2023-01-10T09:25:43;3.89;3.73;2.95;1.88;15.17;15.14;14.94;13.93;11.00;0.81
66101;SPS30;52883;51.094;5.880;2023-01-10T09:28:10;3.73;3.58;2.86;1.85;14.95;14.92;14.73;13.79;10.97;0.79
66101;SPS30;52883;51.094;5.880;2023-01-10T09:30:36;3.84;3.69;2.96;1.94;15.62;15.58;15.39;14.44;11.52;0.80
66101;SPS30;52883;51.094;5.880;2023-01-10T09:33:03;4.04;3.90;3.17;2.15;17.35;17.32;17.13;16.19;13.07;0.78
66101;SPS30;52883;51.094;5.880;2023-01-10T09:35:29;3.69;3.57;2.92;2.01;16.22;16.19;16.02;15.19;12.32;0.77
66101;SPS30;52883;51.094;5.880;2023-01-10T09:37:56;3.64;3.52;2.90;2.02;16.30;16.27;16.11;15.30;12.46;0.78
66101;SPS30;52883;51.094;5.880;2023-01-10T09:43:34;2.74;2.66;2.24;1.63;13.11;13.09;12.98;12.43;10.26;0.75
66101;SPS30;52883;51.094;5.880;2023-01-10T09:46:27;3.16;3.06;2.59;1.89;15.21;15.19;15.07;14.44;11.93;0.75
66101;SPS30;52883;51.094;5.880;2023-01-10T09:49:52;3.60;3.50;2.98;2.21;17.76;17.73;17.60;16.91;14.03;0.74
66101;SPS30;52883;51.094;5.880;2023-01-10T09:51:49;4.03;3.92;3.35;2.50;20.07;20.04;19.89;19.13;15.90;0.74
66101;SPS30;52883;51.094;5.880;2023-01-10T09:54:39;3.69;3.58;3.04;2.24;17.99;17.97;17.82;17.10;14.16;0.75
66101;SPS30;52883;51.094;5.880;2023-01-10T09:57:07;3.17;3.08;2.64;1.97;15.84;15.82;15.70;15.11;12.56;0.72
66101;SPS30;52883;51.094;5.880;2023-01-10T09:59:41;3.81;3.71;3.17;2.37;19.07;19.04;18.90;18.18;15.13;0.73
66101;SPS30;52883;51.094;5.880;2023-01-10T10:02:15;3.59;3.49;2.99;2.25;18.04;18.02;17.89;17.22;14.34;0.72